Time;durP1;ratioP1;P1;durP2;ratioP2;P2;SDS_P1;SDS_P2;PMS_P1;PMS_P2;Temp;Humidity;BMP_temperature;BMP_pressure;BME280_temperature;BME280_humidity;BME280_pressure;Samples;Min_cycle;Max_cycle;Signal;HPM_P1;HPM_P2
2023/04/07 00:00:57;;;;;;;15.85;10.70;;;;;;;7.98;100.00;101411.91;5054292;28;20035;-71
2023/04/07 00:03:23;;;;;;;19.70;10.82;;;;;;;7.99;100.00;101418.09;5054300;28;20041;-71
2023/04/07 00:05:48;;;;;;;16.63;10.93;;;;;;;7.99;100.00;101412.81;5054417;28;20038;-71
2023/04/07 00:08:14;;;;;;;19.67;10.30;;;;;;;7.94;100.00;101418.09;5054168;28;20464;-70
2023/04/07 00:10:40;;;;;;;16.25;9.10;;;;;;;7.93;100.00;101421.59;5050515;28;20109;-71
2023/04/07 00:13:05;;;;;;;14.30;9.07;;;;;;;7.85;100.00;101404.06;5038208;28;20090;-71
2023/04/07 00:15:30;;;;;;;15.52;9.27;;;;;;;7.86;100.00;101414.63;5052864;28;20472;-71
2023/04/07 00:17:56;;;;;;;15.63;7.88;;;;;;;7.88;100.00;101418.09;5052688;28;20037;-71
2023/04/07 00:20:22;;;;;;;14.27;7.95;;;;;;;7.82;100.00;101411.97;5053828;28;20033;-71
2023/04/07 00:22:47;;;;;;;14.63;8.25;;;;;;;7.81;100.00;101420.75;5052902;28;20013;-71
2023/04/07 00:25:13;;;;;;;13.70;8.38;;;;;;;7.82;100.00;101425.16;5053809;28;20051;-71
2023/04/07 00:27:38;;;;;;;16.77;9.32;;;;;;;7.80;100.00;101421.66;5054197;28;20041;-71
2023/04/07 00:30:05;;;;;;;14.63;8.73;;;;;;;7.75;100.00;101414.59;5052317;28;20025;-71
2023/04/07 00:32:30;;;;;;;21.88;9.73;;;;;;;7.77;100.00;101413.75;5050542;28;20103;-71
2023/04/07 00:34:56;;;;;;;22.25;10.20;;;;;;;7.77;100.00;101416.38;5044325;28;20073;-71
2023/04/07 00:37:21;;;;;;;18.48;9.75;;;;;;;7.78;100.00;101416.34;5053786;28;20032;-71
2023/04/07 00:39:47;;;;;;;17.58;9.30;;;;;;;7.78;100.00;101418.13;5053747;28;20447;-71
2023/04/07 00:42:12;;;;;;;22.40;10.95;;;;;;;7.78;100.00;101412.84;5055123;28;20048;-71
2023/04/07 00:44:38;;;;;;;15.40;9.75;;;;;;;7.76;100.00;101412.84;5053622;28;20072;-71
2023/04/07 00:47:03;;;;;;;14.63;9.15;;;;;;;7.77;100.00;101409.34;5053666;28;20041;-71
2023/04/07 00:49:30;;;;;;;17.00;9.30;;;;;;;7.74;100.00;101412.00;5046993;28;20053;-71
2023/04/07 00:51:57;;;;;;;15.77;8.70;;;;;;;7.74;100.00;101412.00;5058432;28;20022;-71
2023/04/07 00:54:23;;;;;;;13.40;8.32;;;;;;;7.70;100.00;101413.72;5048719;28;20041;-71
2023/04/07 00:56:49;;;;;;;14.13;7.70;;;;;;;7.69;100.00;101414.63;5053487;28;20036;-71
2023/04/07 00:59:15;;;;;;;12.68;7.20;;;;;;;7.67;100.00;101411.09;5054541;28;20040;-71
2023/04/07 01:01:52;;;;;;;12.90;8.07;;;;;;;7.64;100.00;101415.47;5052901;28;20033;-71
2023/04/07 01:04:31;;;;;;;20.80;8.63;;;;;;;7.64;100.00;101413.75;5054067;28;20040;-71
2023/04/07 01:07:22;;;;;;;15.43;8.98;;;;;;;7.62;100.00;101404.09;5060209;28;20369;-70
2023/04/07 01:10:05;;;;;;;13.13;8.75;;;;;;;7.63;100.00;101409.34;5049532;28;20116;-70
2023/04/07 01:12:53;;;;;;;12.60;8.27;;;;;;;7.61;100.00;101411.09;5034893;28;20091;-70
2023/04/07 01:15:26;;;;;;;13.80;8.15;;;;;;;7.59;100.00;101411.97;5047955;28;20043;-71
2023/04/07 01:17:59;;;;;;;12.30;7.80;;;;;;;7.54;100.00;101409.34;5057950;28;20040;-70
2023/04/07 01:20:27;;;;;;;13.93;7.85;;;;;;;7.52;100.00;101411.13;5048758;28;20314;-71
2023/04/07 01:23:06;;;;;;;15.13;7.90;;;;;;;7.47;100.00;101413.75;5041358;28;20108;-70
2023/04/07 01:26:03;;;;;;;13.73;7.72;;;;;;;7.48;100.00;101414.63;5048670;28;20033;-71
2023/04/07 01:29:03;;;;;;;15.13;7.95;;;;;;;7.48;100.00;101419.91;5054402;28;20503;-70
2023/04/07 01:31:29;;;;;;;15.50;8.30;;;;;;;7.48;100.00;101419.91;5041576;28;20047;-70
2023/04/07 01:33:58;;;;;;;15.55;7.60;;;;;;;7.46;100.00;101426.91;5053965;28;20626;-71
2023/04/07 01:36:27;;;;;;;11.85;6.10;;;;;;;7.46;100.00;101432.19;5051248;28;20028;-70
2023/04/07 01:38:54;;;;;;;15.13;5.75;;;;;;;7.45;100.00;101431.31;5034728;28;20411;-71
2023/04/07 01:41:20;;;;;;;6.68;3.92;;;;;;;7.41;100.00;101432.19;5060699;28;20060;-70
2023/04/07 01:43:47;;;;;;;8.10;3.70;;;;;;;7.36;100.00;101427.78;5044655;28;20081;-71
2023/04/07 01:46:14;;;;;;;7.03;3.63;;;;;;;7.33;100.00;101433.94;5052448;28;20047;-71
2023/04/07 01:48:41;;;;;;;14.35;4.10;;;;;;;7.28;100.00;101430.44;5055860;28;20037;-71
2023/04/07 01:51:10;;;;;;;8.75;3.80;;;;;;;7.28;100.00;101435.69;5050161;28;20048;-71
2023/04/07 01:53:37;;;;;;;8.10;4.28;;;;;;;7.25;100.00;101426.03;5057164;28;20412;-71
2023/04/07 01:56:03;;;;;;;9.00;3.90;;;;;;;7.23;100.00;101433.06;5047356;28;20040;-71
2023/04/07 01:58:31;;;;;;;11.63;4.20;;;;;;;7.24;100.00;101439.19;5058599;28;20455;-71
2023/04/07 02:00:57;;;;;;;9.60;4.40;;;;;;;7.22;100.00;101433.94;5045677;28;20058;-71
2023/04/07 02:03:30;;;;;;;6.53;3.88;;;;;;;7.23;100.00;101434.81;5060269;28;20508;-71
2023/04/07 02:06:00;;;;;;;9.65;3.90;;;;;;;7.24;100.00;101441.81;5046128;28;20033;-71
2023/04/07 02:08:29;;;;;;;13.38;3.78;;;;;;;7.22;100.00;101436.56;5060655;28;20555;-71
2023/04/07 02:10:58;;;;;;;9.80;3.63;;;;;;;7.27;100.00;101447.09;5050602;28;20029;-71
2023/04/07 02:13:26;;;;;;;9.55;3.80;;;;;;;7.29;100.00;101450.63;5048546;28;20099;-71
2023/04/07 02:15:54;;;;;;;9.55;4.25;;;;;;;7.28;100.00;101447.09;5056865;28;20026;-71
2023/04/07 02:18:21;;;;;;;15.02;4.65;;;;;;;7.29;100.00;101447.97;5044559;28;20036;-71
2023/04/07 02:20:47;;;;;;;10.57;4.60;;;;;;;7.29;100.00;101450.63;5061183;28;20041;-71
2023/04/07 02:23:13;;;;;;;9.90;5.10;;;;;;;7.28;100.00;101449.75;5044017;28;20098;-71
2023/04/07 02:25:38;;;;;;;8.85;4.40;;;;;;;7.33;100.00;101455.88;5034303;28;20461;-71
2023/04/07 02:28:07;;;;;;;11.80;5.05;;;;;;;7.32;100.00;101453.28;5050637;28;20064;-70
2023/04/07 02:30:34;;;;;;;8.38;4.50;;;;;;;7.33;100.00;101450.63;5003649;28;20124;-71
2023/04/07 02:33:00;;;;;;;9.60;4.72;;;;;;;7.34;100.00;101448.84;5058450;28;20457;-71
2023/04/07 02:35:25;;;;;;;11.00;5.30;;;;;;;7.36;100.00;101456.78;5044874;28;20120;-71
2023/04/07 02:37:51;;;;;;;9.10;4.88;;;;;;;7.35;100.00;101448.00;5051742;28;20033;-70
2023/04/07 02:40:16;;;;;;;9.02;4.70;;;;;;;7.34;100.00;101446.22;5051686;28;20055;-71
2023/04/07 02:42:42;;;;;;;10.40;4.85;;;;;;;7.33;100.00;101448.00;5051567;28;20041;-71
2023/04/07 02:45:10;;;;;;;11.43;5.38;;;;;;;7.32;100.00;101443.59;5051435;28;20057;-71
2023/04/07 02:47:38;;;;;;;12.30;6.18;;;;;;;7.33;100.00;101442.72;5051813;28;20103;-70
2023/04/07 02:50:04;;;;;;;13.55;5.65;;;;;;;7.33;100.00;101442.72;5043362;28;20384;-71
2023/04/07 02:52:33;;;;;;;10.60;5.40;;;;;;;7.32;100.00;101438.34;5066804;28;20045;-71
2023/04/07 02:55:00;;;;;;;16.58;5.90;;;;;;;7.33;100.00;101442.72;5050004;28;20041;-71
2023/04/07 02:57:27;;;;;;;10.57;5.78;;;;;;;7.33;100.00;101447.13;5050293;28;20112;-71
2023/04/07 02:59:57;;;;;;;11.52;5.30;;;;;;;7.35;100.00;101449.75;5064122;28;20106;-71
2023/04/07 03:02:34;;;;;;;10.25;5.30;;;;;;;7.29;100.00;101440.97;5050036;28;20091;-71
2023/04/07 03:05:00;;;;;;;9.35;5.35;;;;;;;7.28;100.00;101439.19;5051290;28;20041;-71
2023/04/07 03:07:30;;;;;;;13.57;4.95;;;;;;;7.28;100.00;101447.09;5033515;28;20466;-71
2023/04/07 03:09:57;;;;;;;11.02;4.80;;;;;;;7.28;100.00;101444.47;5029727;28;20396;-71
2023/04/07 03:12:22;;;;;;;11.93;6.00;;;;;;;7.29;100.00;101451.50;5033202;28;20124;-71
2023/04/07 03:14:48;;;;;;;10.85;5.22;;;;;;;7.26;100.00;101438.31;5048168;28;20503;-71
2023/04/07 03:17:14;;;;;;;14.45;5.28;;;;;;;7.27;100.00;101441.81;5042192;28;20021;-71
2023/04/07 03:19:40;;;;;;;10.13;4.32;;;;;;;7.28;100.00;101447.09;5017389;28;20036;-72
2023/04/07 03:22:06;;;;;;;8.93;4.63;;;;;;;7.27;100.00;101445.34;5056005;28;20038;-72
2023/04/07 03:24:35;;;;;;;12.82;4.70;;;;;;;7.25;100.00;101448.88;5046524;28;20041;-72
2023/04/07 03:27:01;;;;;;;10.45;4.68;;;;;;;7.22;100.00;101443.56;5049021;28;20041;-72
2023/04/07 03:29:38;;;;;;;9.43;4.38;;;;;;;7.22;100.00;101440.94;5051942;28;20045;-72
2023/04/07 03:32:06;;;;;;;14.45;4.82;;;;;;;7.24;100.00;101445.34;5059770;28;20032;-72
2023/04/07 03:34:32;;;;;;;9.75;4.50;;;;;;;7.23;100.00;101445.34;5049977;28;20056;-72
2023/04/07 03:36:57;;;;;;;10.23;4.70;;;;;;;7.21;100.00;101439.19;5063859;28;20388;-71
2023/04/07 03:39:23;;;;;;;12.15;4.75;;;;;;;7.23;100.00;101447.97;5029154;28;20579;-70
2023/04/07 03:41:55;;;;;;;11.90;4.75;;;;;;;7.25;100.00;101456.78;5037231;28;20119;-71
2023/04/07 03:44:21;;;;;;;10.57;4.43;;;;;;;7.25;100.00;101455.00;5058383;28;20053;-71
2023/04/07 03:46:49;;;;;;;10.05;4.80;;;;;;;7.22;100.00;101446.22;5050347;28;20106;-71
2023/04/07 03:49:15;;;;;;;16.10;5.45;;;;;;;7.25;100.00;101452.38;5060121;28;20037;-71
2023/04/07 03:51:41;;;;;;;13.23;4.95;;;;;;;7.22;100.00;101457.66;5032035;28;20048;-71
2023/04/07 03:54:13;;;;;;;;;;;;;;;7.25;100.00;101449.75;5053388;28;20051;-72
2023/04/07 03:56:40;;;;;;;13.95;5.18;;;;;;;7.22;100.00;101460.28;5036407;28;19928;-71
2023/04/07 03:59:06;;;;;;;11.27;5.05;;;;;;;7.20;100.00;101462.03;5064117;28;20033;-71
2023/04/07 04:01:36;;;;;;;16.88;5.57;;;;;;;7.17;100.00;101461.13;5046690;28;20025;-72
2023/04/07 04:04:09;;;;;;;16.23;5.45;;;;;;;7.17;100.00;101461.13;5050731;28;20052;-72
2023/04/07 04:06:35;;;;;;;17.15;6.28;;;;;;;7.17;100.00;101461.13;5044323;28;20037;-71
2023/04/07 04:09:09;;;;;;;14.15;4.75;;;;;;;7.22;100.00;101464.66;5050780;28;20503;-71
2023/04/07 04:11:41;;;;;;;13.10;5.68;;;;;;;7.22;100.00;101462.00;5058197;28;20584;-72
2023/04/07 04:14:07;;;;;;;13.13;5.45;;;;;;;7.22;100.00;101457.66;5052392;28;20045;-72
2023/04/07 04:16:35;;;;;;;15.60;6.07;;;;;;;7.22;100.00;101457.66;5029358;28;20116;-72
2023/04/07 04:19:04;;;;;;;14.10;6.43;;;;;;;7.18;100.00;101455.88;5055408;28;20123;-71
2023/04/07 04:21:30;;;;;;;14.98;6.25;;;;;;;7.18;100.00;101463.78;5061790;28;20548;-71
2023/04/07 04:23:56;;;;;;;14.73;6.97;;;;;;;7.16;100.00;101462.88;5030256;28;20037;-71
2023/04/07 04:26:24;;;;;;;15.70;7.35;;;;;;;7.15;100.00;101468.16;5036100;28;20120;-72
2023/04/07 04:28:51;;;;;;;12.90;7.35;;;;;;;7.04;100.00;101458.47;5051642;28;20041;-71
2023/04/07 04:31:19;;;;;;;23.38;8.65;;;;;;;7.02;100.00;101460.25;5051107;28;20150;-71
2023/04/07 04:33:45;;;;;;;16.00;8.38;;;;;;;7.02;100.00;101462.88;5053769;28;20066;-71
2023/04/07 04:36:10;;;;;;;19.48;9.18;;;;;;;7.01;100.00;101468.13;5054930;28;20067;-71
2023/04/07 04:38:36;;;;;;;22.33;9.18;;;;;;;6.97;100.00;101466.34;5052500;28;20483;-71
2023/04/07 04:41:27;;;;;;;;;;;;;;;6.98;100.00;101471.63;5037894;28;20033;-71
2023/04/07 04:43:54;;;;;;;17.85;8.57;;;;;;;6.90;100.00;101470.72;5057517;28;20032;-72
2023/04/07 04:46:23;;;;;;;17.70;9.25;;;;;;;6.88;100.00;101473.34;5059533;28;20064;-71
2023/04/07 04:48:50;;;;;;;18.63;9.60;;;;;;;6.86;100.00;101477.72;5066309;28;20089;-71
2023/04/07 04:51:18;;;;;;;23.58;8.95;;;;;;;6.86;100.00;101479.47;5054788;28;20072;-71
2023/04/07 04:53:47;;;;;;;16.77;8.20;;;;;;;6.86;100.00;101479.47;5061057;28;20393;-72
2023/04/07 04:56:12;;;;;;;16.38;8.18;;;;;;;6.86;100.00;101484.75;5029207;28;20032;-71
2023/04/07 04:58:45;;;;;;;19.25;8.75;;;;;;;6.88;100.00;101490.91;5035821;28;20041;-72
2023/04/07 05:01:13;;;;;;;23.52;8.90;;;;;;;6.89;100.00;101490.03;5035554;28;20033;-71
2023/04/07 05:03:44;;;;;;;18.45;8.18;;;;;;;6.90;100.00;101489.16;5054529;28;20033;-72
2023/04/07 05:06:22;;;;;;;17.15;7.80;;;;;;;6.92;100.00;101495.28;5058929;28;20626;-71
2023/04/07 05:08:50;;;;;;;21.27;8.15;;;;;;;6.91;100.00;101498.81;5054834;28;20083;-71
2023/04/07 05:11:20;;;;;;;29.33;10.10;;;;;;;6.93;100.00;101499.69;5042516;28;20025;-71
2023/04/07 05:13:49;;;;;;;20.80;9.52;;;;;;;6.90;100.00;101494.44;5059120;28;20044;-80
2023/04/07 05:16:14;;;;;;;23.38;8.90;;;;;;;6.93;100.00;101502.34;5040632;28;20033;-80
2023/04/07 05:18:40;;;;;;;15.55;8.98;;;;;;;6.93;100.00;101498.81;5048778;28;20056;-79
2023/04/07 05:21:06;;;;;;;24.95;9.45;;;;;;;6.90;100.00;101504.97;5033834;28;20072;-79
2023/04/07 05:23:35;;;;;;;26.15;8.38;;;;;;;6.91;100.00;101505.84;5034568;28;20033;-79
2023/04/07 05:26:01;;;;;;;19.42;9.52;;;;;;;6.94;100.00;101511.97;5052086;28;20090;-79
2023/04/07 05:28:28;;;;;;;23.35;9.30;;;;;;;6.89;100.00;101509.31;5053914;28;20041;-79
2023/04/07 05:30:56;;;;;;;24.55;9.25;;;;;;;6.92;100.00;101516.34;5049366;28;20032;-80
2023/04/07 05:33:26;;;;;;;17.33;7.85;;;;;;;6.91;100.00;101511.09;5054602;28;20496;-79
2023/04/07 05:35:53;;;;;;;22.08;9.27;;;;;;;6.93;100.00;101515.50;5060978;28;20043;-80
2023/04/07 05:38:19;;;;;;;28.38;9.57;;;;;;;6.95;100.00;101518.13;5040189;28;20022;-79
2023/04/07 05:40:46;;;;;;;23.50;9.63;;;;;;;6.96;100.00;101520.78;5066170;28;20071;-79
2023/04/07 05:43:18;;;;;;;15.95;8.35;;;;;;;6.97;100.00;101527.78;5061626;28;20492;-79
2023/04/07 05:45:43;;;;;;;22.65;9.05;;;;;;;6.97;100.00;101519.00;5064144;28;20081;-79
2023/04/07 05:48:09;;;;;;;16.15;8.68;;;;;;;6.98;100.00;101526.94;5040904;28;20124;-79
2023/04/07 05:50:43;;;;;;;18.10;8.93;;;;;;;6.97;100.00;101526.91;5047950;28;20402;-80
2023/04/07 05:53:12;;;;;;;20.67;8.70;;;;;;;6.97;100.00;101521.66;5037488;28;20037;-80
2023/04/07 05:55:41;;;;;;;20.45;8.98;;;;;;;7.01;100.00;101528.69;5038982;28;20489;-80
2023/04/07 05:58:09;;;;;;;21.52;9.50;;;;;;;7.05;100.00;101522.56;5068235;28;20040;-79
2023/04/07 06:00:35;;;;;;;20.27;9.35;;;;;;;7.06;100.00;101532.22;5031794;28;20024;-80
2023/04/07 06:03:10;;;;;;;24.20;9.90;;;;;;;7.07;100.00;101524.34;5038112;28;20564;-79
2023/04/07 06:05:52;;;;;;;30.92;10.65;;;;;;;7.09;100.00;101525.19;5055820;28;20029;-80
2023/04/07 06:08:19;;;;;;;22.38;8.75;;;;;;;7.09;100.00;101524.31;5068017;28;20391;-79
2023/04/07 06:10:45;;;;;;;19.75;10.27;;;;;;;7.15;100.00;101534.91;5032712;28;20060;-79
2023/04/07 06:13:11;;;;;;;23.33;9.35;;;;;;;7.16;100.00;101530.50;5045660;28;20500;-79
2023/04/07 06:15:36;;;;;;;25.75;9.43;;;;;;;7.17;100.00;101538.41;5043392;28;20039;-79
2023/04/07 06:18:02;;;;;;;29.50;11.00;;;;;;;7.17;100.00;101548.97;5051641;28;20085;-80
2023/04/07 06:20:28;;;;;;;23.85;11.07;;;;;;;7.18;100.00;101545.44;5052352;28;20117;-81
2023/04/07 06:22:54;;;;;;;25.98;10.20;;;;;;;7.19;100.00;101539.28;5066016;28;20485;-80
2023/04/07 06:25:20;;;;;;;22.45;12.15;;;;;;;7.22;100.00;101548.94;5048579;28;20047;-80
2023/04/07 06:27:45;;;;;;;24.45;11.70;;;;;;;7.24;100.00;101549.84;5055846;28;20484;-80
2023/04/07 06:30:11;;;;;;;19.75;10.45;;;;;;;7.26;100.00;101548.09;5037813;28;20087;-80
2023/04/07 06:32:37;;;;;;;25.88;11.77;;;;;;;7.26;100.00;101546.31;5070002;28;20464;-80
2023/04/07 06:35:02;;;;;;;21.92;10.65;;;;;;;7.27;100.00;101548.09;5066824;28;20442;-82
2023/04/07 06:37:29;;;;;;;23.77;11.13;;;;;;;7.28;100.00;101554.25;5070604;28;20306;-80
2023/04/07 06:39:54;;;;;;;30.30;11.48;;;;;;;7.31;100.00;101557.75;5054029;28;20127;-80
2023/04/07 06:42:20;;;;;;;22.92;11.15;;;;;;;7.33;100.00;101552.50;5056076;28;20071;-80
2023/04/07 06:44:57;;;;;;;23.70;12.13;;;;;;;7.33;100.00;101555.13;5051471;28;20068;-80
2023/04/07 06:47:23;;;;;;;32.72;11.48;;;;;;;7.32;100.00;101562.16;5057370;28;20395;-80
2023/04/07 06:49:48;;;;;;;26.95;12.07;;;;;;;7.36;100.00;101555.13;5048545;28;20029;-81
2023/04/07 06:52:14;;;;;;;24.33;11.18;;;;;;;7.40;100.00;101563.94;5030642;28;20041;-81
2023/04/07 06:54:40;;;;;;;22.60;11.73;;;;;;;7.40;100.00;101561.31;5053635;28;20033;-80
2023/04/07 06:57:10;;;;;;;31.02;11.70;;;;;;;7.43;100.00;101564.81;5039042;28;20514;-81
2023/04/07 06:59:37;;;;;;;27.35;11.38;;;;;;;7.44;100.00;101568.34;5071838;28;20049;-80
2023/04/07 07:02:03;;;;;;;24.20;11.43;;;;;;;7.48;100.00;101575.38;5081751;28;20045;-81
2023/04/07 07:04:28;;;;;;;27.70;11.25;;;;;;;7.44;100.00;101573.59;5073672;28;20032;-80
2023/04/07 07:06:54;;;;;;;18.27;9.70;;;;;;;7.46;100.00;101583.28;5065473;28;20033;-80
2023/04/07 07:09:21;;;;;;;20.60;10.82;;;;;;;7.47;100.00;101582.41;5060491;28;20124;-81
2023/04/07 07:11:46;;;;;;;24.92;11.57;;;;;;;7.54;100.00;101581.56;5051247;28;20174;-80
2023/04/07 07:14:12;;;;;;;23.30;11.18;;;;;;;7.61;100.00;101578.91;5054160;28;20536;-81
2023/04/07 07:16:37;;;;;;;24.88;10.68;;;;;;;7.66;100.00;101582.44;5059182;28;20059;-81
2023/04/07 07:19:03;;;;;;;23.02;10.13;;;;;;;7.70;100.00;101589.50;5067879;28;20394;-81
2023/04/07 07:21:28;;;;;;;19.92;9.02;;;;;;;7.73;100.00;101587.72;5070077;28;20436;-80
2023/04/07 07:23:54;;;;;;;16.25;9.57;;;;;;;7.80;100.00;101598.31;5056394;28;20040;-79
2023/04/07 07:26:19;;;;;;;24.85;7.03;;;;;;;7.82;100.00;101589.53;5053706;28;20145;-80
2023/04/07 07:28:45;;;;;;;16.73;7.93;;;;;;;7.86;100.00;101593.94;5062884;28;20284;-80
2023/04/07 07:31:12;;;;;;;13.07;6.70;;;;;;;7.88;100.00;101599.19;5054138;28;20052;-80
2023/04/07 07:33:40;;;;;;;16.10;5.68;;;;;;;7.86;100.00;101600.94;5057444;28;20031;-80
2023/04/07 07:36:06;;;;;;;11.68;6.30;;;;;;;7.85;100.00;101597.41;5072965;28;20037;-80
2023/04/07 07:38:32;;;;;;;12.07;6.38;;;;;;;7.86;100.00;101598.28;5062303;28;20140;-80
2023/04/07 07:40:58;;;;;;;12.70;6.43;;;;;;;7.93;100.00;101602.69;5070331;28;20029;-80
2023/04/07 07:43:23;;;;;;;11.50;4.93;;;;;;;7.96;100.00;101602.69;5072874;28;20119;-80
2023/04/07 07:45:49;;;;;;;9.02;4.47;;;;;;;7.95;100.00;101614.13;5062958;28;20049;-81
2023/04/07 07:48:14;;;;;;;10.20;4.35;;;;;;;7.93;100.00;101613.25;5061934;28;20503;-80
2023/04/07 07:50:41;;;;;;;11.98;4.60;;;;;;;7.94;100.00;101612.41;5058914;28;20071;-81
2023/04/07 07:53:06;;;;;;;9.65;3.70;;;;;;;7.94;100.00;101615.91;5070085;28;20231;-80
2023/04/07 07:55:32;;;;;;;9.32;3.50;;;;;;;7.95;100.00;101622.06;5053903;28;20208;-81
2023/04/07 07:57:57;;;;;;;13.50;3.80;;;;;;;7.95;100.00;101619.41;5054875;28;20055;-81
2023/04/07 08:00:23;;;;;;;12.05;4.10;;;;;;;7.96;100.00;101616.78;5054857;28;20106;-81
2023/04/07 08:02:48;;;;;;;12.70;3.92;;;;;;;7.97;100.00;101622.94;5053656;28;20060;-81
2023/04/07 08:05:14;;;;;;;11.55;4.28;;;;;;;8.00;100.00;101619.44;5037016;28;20033;-81
2023/04/07 08:07:41;;;;;;;9.65;3.97;;;;;;;8.05;100.00;101633.50;5040765;28;20738;-81
2023/04/07 08:10:07;;;;;;;12.10;4.15;;;;;;;8.07;100.00;101623.84;5042147;28;20124;-81
2023/04/07 08:12:33;;;;;;;10.75;4.05;;;;;;;8.14;100.00;101634.41;5037867;28;20119;-81
2023/04/07 08:14:58;;;;;;;21.45;3.92;;;;;;;8.18;100.00;101635.25;5049812;28;20033;-81
2023/04/07 08:17:24;;;;;;;8.38;3.42;;;;;;;8.20;100.00;101641.41;5049111;28;20096;-81
2023/04/07 08:19:49;;;;;;;8.75;3.80;;;;;;;8.21;100.00;101644.94;5054338;28;20045;-81
2023/04/07 08:22:15;;;;;;;12.73;4.10;;;;;;;8.21;100.00;101648.47;5056043;28;20077;-81
2023/04/07 08:24:40;;;;;;;8.63;3.50;;;;;;;8.18;100.00;101643.19;5033369;28;20064;-81
2023/04/07 08:27:06;;;;;;;6.85;2.72;;;;;;;8.16;99.37;101639.69;5041004;28;20112;-80
2023/04/07 08:29:31;;;;;;;10.18;2.90;;;;;;;8.15;99.99;101649.31;5051041;28;20037;-81
2023/04/07 08:31:57;;;;;;;9.85;2.88;;;;;;;8.18;100.00;101644.09;5053155;28;20029;-79
2023/04/07 08:34:23;;;;;;;6.78;2.42;;;;;;;8.19;99.08;101652.88;5054347;28;20448;-81
2023/04/07 08:36:48;;;;;;;11.05;3.00;;;;;;;8.27;98.39;101653.75;5054828;28;20071;-80
2023/04/07 08:39:13;;;;;;;10.95;3.30;;;;;;;8.33;99.87;101658.13;5054792;28;20419;-80
2023/04/07 08:41:41;;;;;;;9.60;2.75;;;;;;;8.41;99.28;101648.53;5054331;28;20036;-81
2023/04/07 08:44:08;;;;;;;6.10;2.50;;;;;;;8.47;97.39;101651.16;5052956;28;20377;-81
2023/04/07 08:46:35;;;;;;;8.10;2.60;;;;;;;8.47;95.91;101652.91;5054127;28;20373;-81
2023/04/07 08:49:01;;;;;;;12.52;3.13;;;;;;;8.50;96.58;101655.53;5046156;28;20048;-81
2023/04/07 08:51:31;;;;;;;5.45;2.30;;;;;;;8.58;97.89;101661.69;5050451;28;20029;-81
2023/04/07 08:54:05;;;;;;;8.30;2.53;;;;;;;8.68;97.99;101667.84;5054100;28;20033;-81
2023/04/07 08:56:33;;;;;;;11.05;2.55;;;;;;;8.76;96.47;101671.38;5052626;28;20040;-81
2023/04/07 08:59:00;;;;;;;8.18;2.25;;;;;;;8.83;95.35;101666.09;5053668;28;20033;-81
2023/04/07 09:01:26;;;;;;;7.97;2.53;;;;;;;8.87;95.34;101669.59;5053713;28;20126;-81
2023/04/07 09:03:52;;;;;;;5.88;2.10;;;;;;;8.83;93.22;101671.38;5038555;28;20037;-81
2023/04/07 09:06:19;;;;;;;9.25;2.55;;;;;;;8.84;94.42;101672.25;5053611;28;20037;-81
2023/04/07 09:08:45;;;;;;;10.25;2.47;;;;;;;8.79;93.78;101668.72;5051380;28;20032;-81
2023/04/07 09:11:10;;;;;;;9.73;2.60;;;;;;;8.75;94.46;101673.16;5035733;28;20048;-81
2023/04/07 09:13:36;;;;;;;11.48;2.75;;;;;;;8.78;95.39;101678.41;5054097;28;20048;-81
2023/04/07 09:16:02;;;;;;;10.32;2.50;;;;;;;8.79;95.61;101680.16;5043608;28;20024;-80
2023/04/07 09:18:27;;;;;;;9.50;3.00;;;;;;;8.77;96.26;101678.41;5053980;28;20056;-81
2023/04/07 09:20:58;;;;;;;8.55;2.42;;;;;;;8.78;95.23;101682.81;5053770;28;20049;-81
2023/04/07 09:23:34;;;;;;;12.10;2.83;;;;;;;8.82;96.33;101676.63;5053592;28;20082;-81
2023/04/07 09:26:21;;;;;;;8.13;2.72;;;;;;;8.88;97.11;101688.94;5053690;28;20044;-81
2023/04/07 09:28:58;;;;;;;8.18;2.38;;;;;;;8.85;95.16;101689.84;5046161;28;20116;-81
2023/04/07 09:31:44;;;;;;;9.75;2.58;;;;;;;8.86;95.90;101691.63;5052205;28;20053;-81
2023/04/07 09:34:27;;;;;;;14.25;3.10;;;;;;;8.88;95.13;101687.22;5053297;28;20028;-81
2023/04/07 09:36:53;;;;;;;9.40;2.55;;;;;;;8.97;96.16;101683.66;5053544;28;20487;-81
2023/04/07 09:39:19;;;;;;;10.07;2.70;;;;;;;9.01;95.29;101688.94;5054514;28;20101;-81
2023/04/07 09:41:44;;;;;;;10.18;2.40;;;;;;;9.01;93.60;101681.00;5053667;28;20495;-81
2023/04/07 09:44:10;;;;;;;6.95;2.63;;;;;;;9.04;94.57;101686.28;5052497;28;20127;-81
2023/04/07 09:46:56;;;;;;;9.00;2.90;;;;;;;9.04;93.84;101688.94;5053198;28;20051;-81
2023/04/07 09:49:23;;;;;;;8.50;2.55;;;;;;;9.03;93.46;101683.66;5042331;28;20041;-81
2023/04/07 09:52:00;;;;;;;12.93;2.65;;;;;;;8.98;94.43;101688.94;5048158;28;20480;-81
2023/04/07 09:54:37;;;;;;;8.90;2.25;;;;;;;8.95;93.73;101694.25;5044055;28;20040;-82
2023/04/07 09:57:05;;;;;;;12.90;3.03;;;;;;;8.92;92.97;101690.72;5052083;28;20128;-82
2023/04/07 09:59:32;;;;;;;11.07;2.40;;;;;;;8.87;92.30;101696.00;5050545;28;20032;-81
2023/04/07 10:01:59;;;;;;;7.25;2.35;;;;;;;8.83;91.25;101696.91;5064400;28;20031;-81
2023/04/07 10:04:26;;;;;;;7.47;2.05;;;;;;;8.77;91.22;101705.69;5056090;28;20514;-81
2023/04/07 10:06:53;;;;;;;8.38;2.70;;;;;;;8.68;91.41;101700.44;5052266;28;20027;-81
2023/04/07 10:09:20;;;;;;;8.82;2.22;;;;;;;8.67;91.12;101703.06;5062560;28;20724;-81
2023/04/07 10:11:45;;;;;;;6.97;2.30;;;;;;;8.67;91.71;101705.72;5044619;28;20029;-82
2023/04/07 10:14:12;;;;;;;6.55;2.13;;;;;;;8.73;91.61;101709.22;5052927;28;20472;-81
2023/04/07 10:16:37;;;;;;;8.45;2.17;;;;;;;8.74;91.05;101707.47;5050746;28;20078;-81
2023/04/07 10:19:05;;;;;;;6.30;1.80;;;;;;;8.80;92.48;101713.63;5052656;28;20614;-81
2023/04/07 10:21:35;;;;;;;8.05;2.05;;;;;;;8.90;92.35;101713.59;5068102;28;20036;-81
2023/04/07 10:24:25;;;;;;;6.80;2.15;;;;;;;8.96;91.80;101713.63;5051634;28;20345;-81
2023/04/07 10:26:55;;;;;;;11.38;2.40;;;;;;;9.03;91.54;101718.88;5049888;28;20047;-81
2023/04/07 10:29:23;;;;;;;8.55;2.78;;;;;;;9.07;90.34;101717.09;5042299;28;20378;-81
2023/04/07 10:31:50;;;;;;;9.73;1.98;;;;;;;9.08;88.79;101723.28;5052569;28;20555;-81
2023/04/07 10:34:17;;;;;;;7.30;1.98;;;;;;;9.13;90.07;101730.31;5052469;28;20047;-81
2023/04/07 10:37:16;;;;;;;11.25;2.70;;;;;;;9.16;90.26;101729.44;5067685;28;20051;-81
2023/04/07 10:39:42;;;;;;;12.50;3.00;;;;;;;9.16;90.47;101729.44;5052079;28;20480;-81
2023/04/07 10:42:39;;;;;;;12.68;2.40;;;;;;;9.14;90.23;101729.44;5052790;28;20041;-81
2023/04/07 10:45:09;;;;;;;15.73;3.10;;;;;;;9.04;89.57;101727.69;5052721;28;20059;-81
2023/04/07 10:47:56;;;;;;;8.90;2.40;;;;;;;9.07;90.60;101732.09;5056348;28;20130;-81
2023/04/07 10:50:23;;;;;;;11.98;3.08;;;;;;;9.03;90.02;101731.22;5054622;28;20093;-81
2023/04/07 10:53:03;;;;;;;10.55;2.97;;;;;;;9.07;90.32;101734.72;5054155;28;20028;-82
2023/04/07 10:55:30;;;;;;;11.18;2.90;;;;;;;9.12;90.83;101739.13;5052319;28;20037;-81
2023/04/07 10:58:16;;;;;;;12.52;2.70;;;;;;;9.14;90.92;101733.84;5041661;28;20155;-81
2023/04/07 11:01:05;;;;;;;10.70;2.80;;;;;;;9.14;91.90;101733.84;5050489;28;20041;-81
2023/04/07 11:03:36;;;;;;;13.77;2.50;;;;;;;9.18;90.51;101740.88;5050338;28;20033;-82
2023/04/07 11:06:10;;;;;;;11.27;3.03;;;;;;;9.20;89.61;101740.00;5037985;28;20036;-81
2023/04/07 11:08:37;;;;;;;15.23;3.00;;;;;;;9.18;90.62;101740.88;5049314;28;20052;-82
2023/04/07 11:11:08;;;;;;;17.13;2.58;;;;;;;9.17;89.26;101737.38;5040370;28;20067;-81
2023/04/07 11:13:47;;;;;;;8.50;2.50;;;;;;;9.16;89.72;101735.59;5051433;28;20049;-81
2023/04/07 11:16:15;;;;;;;9.20;3.03;;;;;;;9.16;89.60;101738.22;5044011;28;20053;-82
2023/04/07 11:18:41;;;;;;;9.07;2.33;;;;;;;9.21;89.88;101743.53;5046616;28;20132;-82
2023/04/07 11:21:07;;;;;;;11.10;2.35;;;;;;;9.19;88.03;101743.50;5056577;28;20515;-82
2023/04/07 11:23:41;;;;;;;10.73;2.40;;;;;;;9.14;88.77;101742.63;5063108;28;20072;-82
2023/04/07 11:26:10;;;;;;;12.07;2.22;;;;;;;9.10;89.03;101746.19;5062568;28;20052;-81
2023/04/07 11:28:47;;;;;;;12.10;2.95;;;;;;;9.09;88.81;101754.09;5061720;28;20101;-82